Time;durP1;ratioP1;P1;durP2;ratioP2;P2;SDS_P1;SDS_P2;PMS_P1;PMS_P2;Temp;Humidity;BMP_temperature;BMP_pressure;BME280_temperature;BME280_humidity;BME280_pressure;Samples;Min_cycle;Max_cycle;Signal;HPM_P1;HPM_P2
2021/03/04 00:01:28;;;;;;;33.93;23.10;;;;;;;-144.99;100.00;52358.41;5001523;28;20211;-73
2021/03/04 00:03:54;;;;;;;34.67;23.10;;;;;;;-144.99;100.00;52329.88;5003365;28;20744;-74
2021/03/04 00:06:19;;;;;;;29.53;18.70;;;;;;;-144.99;100.00;52358.41;5000199;28;20765;-76
2021/03/04 00:08:46;;;;;;;27.53;18.60;;;;;;;-144.99;100.00;52354.34;5006145;28;20290;-73
2021/03/04 00:11:13;;;;;;;21.67;18.50;;;;;;;-144.99;100.00;52370.63;5002410;28;20204;-74
2021/03/04 00:13:39;;;;;;;21.77;17.70;;;;;;;-144.99;100.00;52352.28;5006090;28;20680;-75
2021/03/04 00:16:06;;;;;;;23.50;17.07;;;;;;;-144.99;100.00;52378.78;5004746;28;20662;-76
2021/03/04 00:18:32;;;;;;;23.17;16.77;;;;;;;-144.99;100.00;52333.94;5006718;28;20431;-75
2021/03/04 00:20:58;;;;;;;24.57;18.23;;;;;;;-144.99;100.00;52346.19;5005909;28;21082;-74
2021/03/04 00:23:24;;;;;;;21.37;16.27;;;;;;;-144.99;100.00;52325.81;5007294;28;20310;-74
2021/03/04 00:25:51;;;;;;;19.93;15.87;;;;;;;-144.99;100.00;52342.09;5005660;28;20715;-75
2021/03/04 00:28:17;;;;;;;19.57;16.80;;;;;;;-144.99;100.00;52325.81;5008218;28;20651;-74
2021/03/04 00:30:43;;;;;;;19.90;15.60;;;;;;;-144.99;100.00;52309.50;5007453;28;20637;-74
2021/03/04 00:33:09;;;;;;;19.77;13.03;;;;;;;-144.99;100.00;52350.25;5004963;28;20653;-75
2021/03/04 00:35:35;;;;;;;18.60;12.83;;;;;;;-144.99;100.00;52374.72;5002092;28;20211;-75
2021/03/04 00:38:01;;;;;;;20.00;12.03;;;;;;;-144.99;100.00;52366.56;5007364;28;20281;-76
2021/03/04 00:40:27;;;;;;;14.53;11.33;;;;;;;-144.99;100.00;52354.34;5003499;28;21014;-77
2021/03/04 00:42:53;;;;;;;12.53;9.97;;;;;;;-144.99;100.00;52370.63;5005811;28;21206;-75
2021/03/04 00:45:22;;;;;;;16.97;11.20;;;;;;;-144.99;100.00;52342.09;5003798;28;20693;-75
2021/03/04 00:47:48;;;;;;;13.43;10.00;;;;;;;-144.99;100.00;52321.72;5003835;28;20636;-77
2021/03/04 00:50:16;;;;;;;17.47;11.40;;;;;;;-144.99;100.00;52325.81;5007145;28;20622;-77
2021/03/04 00:52:42;;;;;;;15.10;12.07;;;;;;;-144.99;100.00;52319.69;5001278;28;21247;-76
2021/03/04 00:55:09;;;;;;;14.77;10.67;;;;;;;-144.99;100.00;52342.09;5005906;28;21192;-76
2021/03/04 00:57:35;;;;;;;13.07;9.70;;;;;;;-144.99;100.00;52348.22;5002999;28;20631;-77
2021/03/04 01:00:03;;;;;;;13.73;9.63;;;;;;;-144.99;100.00;52342.09;5005793;28;20672;-74
2021/03/04 01:02:30;;;;;;;12.67;9.07;;;;;;;-144.99;100.00;52321.72;5003889;28;20788;-74
2021/03/04 01:04:56;;;;;;;11.40;8.20;;;;;;;-144.99;100.00;52386.94;5002507;28;21274;-75
2021/03/04 01:07:22;;;;;;;11.90;6.97;;;;;;;-144.99;100.00;52313.56;5005976;28;20680;-76
2021/03/04 01:09:48;;;;;;;16.80;8.27;;;;;;;-144.99;100.00;52340.06;5007734;28;20191;-76
2021/03/04 01:12:14;;;;;;;13.27;7.67;;;;;;;-144.99;100.00;52362.50;5004788;28;20599;-76
2021/03/04 01:14:40;;;;;;;9.60;6.83;;;;;;;-144.99;100.00;52370.63;5001287;28;20653;-76
2021/03/04 01:17:08;;;;;;;14.40;7.60;;;;;;;-144.99;100.00;52336.00;5005693;28;20206;-76
2021/03/04 01:19:35;;;;;;;11.33;7.20;;;;;;;-144.99;100.00;52354.34;5002739;28;20218;-76
2021/03/04 01:22:01;;;;;;;10.63;6.33;;;;;;;-144.99;100.00;52366.56;5001595;28;20663;-75
2021/03/04 01:24:27;;;;;;;11.40;7.20;;;;;;;-144.99;100.00;52333.94;5007741;28;20703;-76
2021/03/04 01:26:53;;;;;;;10.50;6.90;;;;;;;-144.99;100.00;52331.91;5006113;28;20732;-75
2021/03/04 01:29:18;;;;;;;12.23;8.30;;;;;;;-144.99;100.00;52346.19;5006272;28;20242;-76
2021/03/04 01:31:44;;;;;;;9.20;7.50;;;;;;;-144.99;100.00;52338.03;5003309;28;20258;-75
2021/03/04 01:34:11;;;;;;;10.23;8.03;;;;;;;-144.99;100.00;52344.16;5004663;28;20231;-76
2021/03/04 01:36:37;;;;;;;15.90;7.97;;;;;;;-144.99;100.00;52338.03;5002159;28;20589;-75
2021/03/04 01:39:05;;;;;;;12.67;7.13;;;;;;;-144.99;100.00;52370.63;5003086;28;20633;-75
2021/03/04 01:41:31;;;;;;;10.53;7.20;;;;;;;-144.99;100.00;52356.38;5001894;28;21008;-75
2021/03/04 01:43:57;;;;;;;10.87;7.47;;;;;;;-144.99;100.00;52333.94;5004161;28;20630;-74
2021/03/04 01:46:23;;;;;;;9.70;7.30;;;;;;;-144.99;100.00;52382.88;5001777;28;20253;-75
2021/03/04 01:48:50;;;;;;;11.20;7.37;;;;;;;-144.99;100.00;52346.19;4999374;28;20741;-75
2021/03/04 01:51:18;;;;;;;9.80;7.47;;;;;;;-144.99;100.00;52403.25;5003651;28;20636;-74
2021/03/04 01:53:44;;;;;;;8.77;6.20;;;;;;;-144.99;100.00;52374.72;5005940;28;21104;-74
2021/03/04 01:56:10;;;;;;;9.17;5.90;;;;;;;-144.99;100.00;52362.50;5009031;28;20634;-74
2021/03/04 01:58:37;;;;;;;7.97;6.80;;;;;;;-144.99;100.00;52350.25;5010846;28;20621;-74
2021/03/04 02:01:03;;;;;;;10.33;6.70;;;;;;;-144.99;100.00;52342.09;5014702;28;20633;-74
2021/03/04 02:03:29;;;;;;;9.83;6.27;;;;;;;-144.99;100.00;52264.66;5012941;28;20650;-73
2021/03/04 02:05:55;;;;;;;7.40;5.30;;;;;;;-144.99;100.00;52338.03;5020658;28;20698;-75
2021/03/04 02:08:30;;;;;;;6.37;4.53;;;;;;;-144.99;100.00;52342.09;5006357;28;20625;-74
2021/03/04 02:11:00;;;;;;;8.47;6.80;;;;;;;-144.99;100.00;52350.25;5015126;28;21190;-74
2021/03/04 02:13:30;;;;;;;8.33;5.63;;;;;;;-144.99;100.00;52350.25;5001156;28;20658;-74
2021/03/04 02:16:03;;;;;;;9.17;4.93;;;;;;;-144.99;100.00;52313.56;5001982;28;20662;-72
2021/03/04 02:18:33;;;;;;;9.43;5.30;;;;;;;-144.99;100.00;52356.38;5002962;28;20647;-74
2021/03/04 02:21:32;;;;;;;6.70;5.07;;;;;;;-144.99;100.00;52346.19;5001324;28;20618;-75
2021/03/04 02:24:18;;;;;;;8.83;6.60;;;;;;;-144.99;100.00;52305.41;4975796;28;21015;-76
2021/03/04 02:26:58;;;;;;;7.07;4.40;;;;;;;-144.99;100.00;52342.09;5008369;28;20858;-75
2021/03/04 02:29:25;;;;;;;6.73;4.63;;;;;;;-144.99;100.00;52395.09;5009626;28;21218;-75
2021/03/04 02:31:54;;;;;;;7.27;3.87;;;;;;;-144.99;100.00;52372.69;5004448;28;20657;-75
2021/03/04 02:34:22;;;;;;;7.17;4.70;;;;;;;-144.99;100.00;52358.41;5007639;28;20719;-75
2021/03/04 02:36:50;;;;;;;5.93;3.70;;;;;;;-144.99;100.00;52391.03;5006125;28;20626;-75
2021/03/04 02:39:17;;;;;;;5.60;3.77;;;;;;;-144.99;100.00;52342.09;4999075;28;20664;-75
2021/03/04 02:41:45;;;;;;;6.97;4.33;;;;;;;-144.99;100.00;52319.69;5000629;28;20659;-76
2021/03/04 02:44:13;;;;;;;9.77;4.47;;;;;;;-144.99;100.00;52346.19;4999940;28;20695;-76
2021/03/04 02:46:41;;;;;;;6.33;5.30;;;;;;;-144.99;100.00;52333.94;5000469;28;21145;-76
2021/03/04 02:49:08;;;;;;;7.47;4.50;;;;;;;-144.99;100.00;52342.09;5003958;28;20695;-77
2021/03/04 02:51:36;;;;;;;6.83;3.03;;;;;;;-144.99;100.00;52317.66;5004148;28;20639;-76
2021/03/04 02:54:06;;;;;;;5.27;3.70;;;;;;;-144.99;100.00;52342.09;5005619;28;20626;-76
2021/03/04 02:56:35;;;;;;;5.93;3.60;;;;;;;-144.99;100.00;52333.94;5005602;28;20628;-76
2021/03/04 02:59:05;;;;;;;4.80;3.93;;;;;;;-144.99;100.00;52356.38;5000428;28;20638;-74
2021/03/04 03:01:33;;;;;;;6.07;3.27;;;;;;;-144.99;100.00;52362.50;5003720;28;20647;-76
2021/03/04 03:04:00;;;;;;;7.33;4.20;;;;;;;-144.99;100.00;52338.03;5002615;28;20637;-77
2021/03/04 03:06:27;;;;;;;7.03;3.60;;;;;;;-144.99;100.00;52329.88;5003428;28;20665;-75
2021/03/04 03:08:55;;;;;;;5.80;4.43;;;;;;;-144.99;100.00;52344.16;5004231;28;20650;-77
2021/03/04 03:11:24;;;;;;;7.00;4.47;;;;;;;-144.99;100.00;52338.03;5004074;28;20629;-75
2021/03/04 03:13:52;;;;;;;5.63;3.73;;;;;;;-144.99;100.00;52338.03;5001695;28;20728;-75
2021/03/04 03:16:18;;;;;;;5.10;3.30;;;;;;;-144.99;100.00;52317.66;5005594;28;20626;-77
2021/03/04 03:18:45;;;;;;;5.70;3.63;;;;;;;-144.99;100.00;52374.72;5003628;28;20634;-76
2021/03/04 03:21:12;;;;;;;5.83;3.70;;;;;;;-144.99;100.00;52338.03;4999657;28;20975;-76
2021/03/04 03:23:38;;;;;;;4.53;2.80;;;;;;;-144.99;100.00;52338.03;5003929;28;20752;-75
2021/03/04 03:26:04;;;;;;;5.07;3.70;;;;;;;-144.99;100.00;52346.19;5002524;28;20664;-76
2021/03/04 03:28:30;;;;;;;6.33;3.77;;;;;;;-144.99;100.00;52342.09;5004755;28;20641;-76
2021/03/04 03:30:57;;;;;;;11.80;3.90;;;;;;;-144.99;100.00;52362.50;5001033;28;20646;-75
2021/03/04 03:33:27;;;;;;;7.07;5.63;;;;;;;-144.99;100.00;52354.34;5005007;28;21166;-75
2021/03/04 03:35:54;;;;;;;9.77;4.47;;;;;;;-144.99;100.00;52350.25;4996709;28;20691;-75
2021/03/04 03:38:22;;;;;;;13.10;5.83;;;;;;;-144.99;100.00;52354.34;4999405;28;21204;-75
2021/03/04 03:40:50;;;;;;;11.63;4.90;;;;;;;-144.99;100.00;52374.72;4996679;28;20758;-75
2021/03/04 03:43:18;;;;;;;9.53;5.00;;;;;;;-144.99;100.00;52321.72;5003799;28;20673;-76
2021/03/04 03:45:46;;;;;;;14.77;9.80;;;;;;;-144.99;100.00;52354.34;5000799;28;20661;-74
2021/03/04 03:48:14;;;;;;;5.87;4.37;;;;;;;-144.99;100.00;52321.72;5006330;28;20641;-74
2021/03/04 03:50:42;;;;;;;5.17;3.73;;;;;;;-144.99;100.00;52331.91;4999864;28;20746;-76
2021/03/04 03:53:12;;;;;;;7.93;4.03;;;;;;;-144.99;100.00;52285.03;5001347;28;20717;-76
2021/03/04 03:55:38;;;;;;;8.63;4.33;;;;;;;-144.99;100.00;52358.41;5001732;28;20648;-75
2021/03/04 03:58:04;;;;;;;7.13;5.53;;;;;;;-144.99;100.00;52366.56;5001924;28;20994;-75
2021/03/04 04:00:31;;;;;;;5.70;3.93;;;;;;;-144.99;100.00;52313.56;5003451;28;20713;-74
2021/03/04 04:02:59;;;;;;;9.97;4.93;;;;;;;-144.99;100.00;52325.81;5000115;28;20657;-73
2021/03/04 04:05:26;;;;;;;6.23;4.43;;;;;;;-144.99;100.00;52327.84;5003663;28;20645;-74
2021/03/04 04:07:53;;;;;;;8.87;4.87;;;;;;;-144.99;100.00;52350.25;5004098;28;20629;-75
2021/03/04 04:10:22;;;;;;;7.93;4.67;;;;;;;-144.99;100.00;52317.66;4998642;28;21019;-75
2021/03/04 04:12:48;;;;;;;6.30;4.67;;;;;;;-144.99;100.00;52321.72;4998982;28;21254;-73
2021/03/04 04:15:14;;;;;;;6.97;4.30;;;;;;;-144.99;100.00;52325.81;5005061;28;20695;-74
2021/03/04 04:17:41;;;;;;;8.20;5.30;;;;;;;-144.99;100.00;52321.72;5007909;28;20804;-75
2021/03/04 04:20:08;;;;;;;6.63;4.67;;;;;;;-144.99;100.00;52338.03;5004090;28;20630;-76
2021/03/04 04:22:35;;;;;;;6.83;4.23;;;;;;;-144.99;100.00;52313.56;5011949;28;20753;-76
2021/03/04 04:25:01;;;;;;;7.00;3.93;;;;;;;-144.99;100.00;52321.72;5012292;28;20731;-75
2021/03/04 04:27:28;;;;;;;7.83;4.63;;;;;;;-144.99;100.00;52370.63;5011306;28;20633;-74
2021/03/04 04:29:54;;;;;;;10.40;5.77;;;;;;;-144.99;100.00;52323.75;5013831;28;20692;-76
2021/03/04 04:32:20;;;;;;;6.67;4.27;;;;;;;-144.99;100.00;52301.34;5008457;28;20673;-76
2021/03/04 04:34:49;;;;;;;7.27;4.23;;;;;;;-144.99;100.00;52370.63;5003070;28;20354;-76
2021/03/04 04:37:15;;;;;;;5.70;3.40;;;;;;;-144.99;100.00;52366.56;5008775;28;20661;-74
2021/03/04 04:39:41;;;;;;;8.93;4.73;;;;;;;-144.99;100.00;52346.19;5010247;28;20629;-75
2021/03/04 04:42:07;;;;;;;6.47;4.03;;;;;;;-144.99;100.00;52342.09;5012934;28;20653;-75
2021/03/04 04:44:34;;;;;;;6.70;4.07;;;;;;;-144.99;100.00;52388.97;5009858;28;21179;-75
2021/03/04 04:47:00;;;;;;;7.93;4.00;;;;;;;-144.99;100.00;52358.41;5006570;28;20660;-75
2021/03/04 04:49:27;;;;;;;7.53;3.27;;;;;;;-144.99;100.00;52346.19;5010808;28;20640;-72
2021/03/04 04:51:53;;;;;;;18.33;4.03;;;;;;;-144.99;100.00;52305.41;5010204;28;20669;-74
2021/03/04 04:54:19;;;;;;;3.93;2.83;;;;;;;-144.99;100.00;52344.16;5012550;28;20649;-73
2021/03/04 04:56:45;;;;;;;7.87;3.33;;;;;;;-144.99;100.00;52338.03;5010239;28;20207;-74
2021/03/04 04:59:11;;;;;;;11.70;3.33;;;;;;;-144.99;100.00;52321.72;5011823;28;20631;-75
2021/03/04 05:01:38;;;;;;;4.40;2.40;;;;;;;-144.99;100.00;52321.72;5006368;28;20670;-72
2021/03/04 05:04:04;;;;;;;7.83;4.00;;;;;;;-144.99;100.00;52270.78;5010350;28;20648;-73
2021/03/04 05:06:30;;;;;;;6.50;3.17;;;;;;;-144.99;100.00;52336.00;5009998;28;20667;-73
2021/03/04 05:08:56;;;;;;;3.97;2.87;;;;;;;-144.99;100.00;52374.72;5008463;28;20642;-74
2021/03/04 05:11:22;;;;;;;11.67;2.60;;;;;;;-144.99;100.00;52313.56;5007738;28;20627;-73
2021/03/04 05:13:48;;;;;;;4.87;4.20;;;;;;;-144.99;100.00;52317.66;5012540;28;21202;-75
2021/03/04 05:16:14;;;;;;;3.70;2.37;;;;;;;-144.99;100.00;52319.69;5010745;28;20195;-75
2021/03/04 05:18:41;;;;;;;4.03;2.60;;;;;;;-144.99;100.00;52321.72;5011210;28;21228;-74
2021/03/04 05:21:08;;;;;;;7.53;2.80;;;;;;;-144.99;100.00;52313.56;5010422;28;20680;-75
2021/03/04 05:23:34;;;;;;;4.50;2.47;;;;;;;-144.99;100.00;52374.72;5011404;28;20653;-75
2021/03/04 05:26:00;;;;;;;5.23;2.10;;;;;;;-144.99;100.00;52331.91;5009828;28;20649;-74
2021/03/04 05:28:26;;;;;;;4.13;2.67;;;;;;;-144.99;100.00;52350.25;5009345;28;20630;-75
2021/03/04 05:30:52;;;;;;;4.80;3.00;;;;;;;-144.99;99.95;52348.22;5014400;28;20932;-75
2021/03/04 05:33:18;;;;;;;2.57;2.03;;;;;;;-144.99;99.90;52317.66;5008556;28;20662;-75
2021/03/04 05:35:45;;;;;;;10.10;2.23;;;;;;;-144.99;99.93;52338.03;5005001;28;20630;-74
2021/03/04 05:38:12;;;;;;;6.77;2.30;;;;;;;-144.99;99.82;52358.41;5008557;28;21147;-75
2021/03/04 05:40:38;;;;;;;2.73;1.80;;;;;;;-144.99;99.81;52338.03;5007377;28;20709;-75
2021/03/04 05:43:04;;;;;;;3.53;3.00;;;;;;;-144.99;99.69;52321.72;5006261;28;21371;-74
2021/03/04 05:45:31;;;;;;;4.30;2.87;;;;;;;-144.99;99.23;52358.41;5005577;28;20662;-75
2021/03/04 05:47:57;;;;;;;11.00;2.80;;;;;;;-144.99;99.17;52374.72;5002823;28;20657;-75
2021/03/04 05:50:27;;;;;;;4.17;1.87;;;;;;;-144.99;99.11;52350.25;5003087;28;20644;-75
2021/03/04 05:52:59;;;;;;;5.33;2.27;;;;;;;-144.99;98.76;52354.34;5039358;23;20685;-76
2021/03/04 05:55:26;;;;;;;3.07;2.00;;;;;;;-144.99;98.60;52364.53;5026343;28;20614;-76
2021/03/04 05:57:52;;;;;;;3.77;1.93;;;;;;;-144.99;98.49;52319.69;5026797;28;20660;-75
2021/03/04 06:00:19;;;;;;;3.20;2.47;;;;;;;-144.99;98.05;52338.03;5029979;28;20618;-78
2021/03/04 06:02:46;;;;;;;5.77;1.77;;;;;;;-144.99;97.84;52340.06;5019348;28;20717;-76
2021/03/04 06:05:13;;;;;;;4.90;1.53;;;;;;;-144.99;97.79;52370.63;5001157;28;20663;-76
2021/03/04 06:07:42;;;;;;;3.03;2.03;;;;;;;-144.99;97.72;52346.19;4998226;28;20641;-78
2021/03/04 06:10:11;;;;;;;3.57;2.27;;;;;;;-144.99;97.62;52374.72;4998571;28;20642;-76
2021/03/04 06:12:37;;;;;;;6.20;2.90;;;;;;;-144.99;97.41;52317.66;4997546;28;21246;-75
2021/03/04 06:15:04;;;;;;;4.87;1.80;;;;;;;-144.99;97.51;52321.72;4996183;28;20792;-75
2021/03/04 06:17:30;;;;;;;6.27;2.17;;;;;;;-144.99;97.38;52305.41;4991402;28;20199;-74
2021/03/04 06:19:57;;;;;;;5.63;1.97;;;;;;;-144.99;97.54;52358.41;5009612;28;20618;-78
2021/03/04 06:22:27;;;;;;;3.60;1.57;;;;;;;-144.99;97.58;52388.97;5013465;28;20630;-75
2021/03/04 06:24:56;;;;;;;10.13;3.43;;;;;;;-144.99;98.74;52329.88;5016976;28;20635;-72
2021/03/04 06:27:29;;;;;;;24.47;5.93;;;;;;;-144.99;99.49;52366.56;5024152;28;20610;-71
2021/03/04 06:29:55;;;;;;;6.57;2.23;;;;;;;-144.99;99.04;52333.94;5014102;28;20722;-74
2021/03/04 06:32:23;;;;;;;3.97;1.80;;;;;;;-144.99;97.76;52329.88;5018674;28;20629;-74
2021/03/04 06:35:00;;;;;;;4.80;2.10;;;;;;;-144.99;97.61;52325.81;5015161;28;20627;-74
2021/03/04 06:37:28;;;;;;;8.17;2.63;;;;;;;-144.99;97.65;52301.34;5007960;28;20629;-77
2021/03/04 06:39:55;;;;;;;6.23;1.83;;;;;;;-144.99;97.72;52336.00;5012270;28;20611;-74
2021/03/04 06:42:22;;;;;;;3.57;1.77;;;;;;;-144.99;97.74;52329.88;4995275;28;20634;-74
2021/03/04 06:44:51;;;;;;;3.93;3.40;;;;;;;-144.99;97.93;52321.72;4996909;28;20638;-76
2021/03/04 06:47:24;;;;;;;5.47;2.30;;;;;;;-144.99;97.80;52374.72;5002332;28;21353;-76
2021/03/04 06:49:51;;;;;;;7.73;2.07;;;;;;;-144.99;97.86;52350.25;4995077;28;20623;-75
2021/03/04 06:52:24;;;;;;;3.60;2.63;;;;;;;-144.99;97.83;52342.09;4993158;28;21187;-78
2021/03/04 06:54:53;;;;;;;7.93;3.60;;;;;;;-144.99;97.78;52338.03;4999365;28;20682;-79
2021/03/04 06:57:19;;;;;;;4.87;4.03;;;;;;;-144.99;97.87;52323.75;4990197;28;20826;-76
2021/03/04 06:59:47;;;;;;;5.33;2.07;;;;;;;-144.99;97.74;52378.78;4990061;28;20630;-77
2021/03/04 07:02:25;;;;;;;7.43;1.83;;;;;;;-144.99;97.83;52354.34;4998393;28;20726;-74
2021/03/04 07:04:54;;;;;;;2.43;1.80;;;;;;;-144.99;97.69;52370.63;4996371;28;20704;-74
2021/03/04 07:07:24;;;;;;;3.60;1.97;;;;;;;-144.99;97.71;52346.19;4997517;28;20633;-73
2021/03/04 07:09:51;;;;;;;8.30;2.77;;;;;;;-144.99;97.62;52362.50;4994633;28;21018;-75
2021/03/04 07:12:19;;;;;;;4.23;2.17;;;;;;;-144.99;97.55;52313.56;4997240;28;20634;-75
2021/03/04 07:14:47;;;;;;;5.40;2.27;;;;;;;-144.99;97.78;52307.47;4995098;28;20667;-75
2021/03/04 07:17:15;;;;;;;2.43;1.83;;;;;;;-144.99;97.82;52338.03;4990131;28;20634;-73
2021/03/04 07:19:46;;;;;;;5.20;2.40;;;;;;;-144.99;97.91;52315.59;4982165;28;21016;-74
2021/03/04 07:22:13;;;;;;;7.17;3.13;;;;;;;-144.99;98.00;52329.88;4985839;28;20652;-74
2021/03/04 07:24:40;;;;;;;2.40;1.97;;;;;;;-144.99;97.71;52317.66;4982279;28;20635;-74
2021/03/04 07:27:07;;;;;;;6.93;2.33;;;;;;;-144.99;97.71;52329.88;4991667;28;20653;-74
2021/03/04 07:29:35;;;;;;;5.07;2.60;;;;;;;-144.99;97.53;52350.25;4982784;28;21203;-74
2021/03/04 07:32:05;;;;;;;3.47;2.70;;;;;;;-144.99;97.55;52338.03;4992475;28;20708;-74
2021/03/04 07:34:34;;;;;;;4.73;2.50;;;;;;;-144.99;97.45;52370.63;4988764;28;20665;-75
2021/03/04 07:37:02;;;;;;;4.27;2.30;;;;;;;-144.99;97.54;52329.88;4987753;28;21263;-74
2021/03/04 07:39:29;;;;;;;4.70;2.13;;;;;;;-144.99;97.58;52325.81;4986224;28;21247;-76
2021/03/04 07:41:55;;;;;;;5.80;2.67;;;;;;;-144.99;97.65;52342.09;4989982;28;20633;-78
2021/03/04 07:44:26;;;;;;;2.97;1.83;;;;;;;-144.99;97.50;52325.81;4993829;28;20669;-74
2021/03/04 07:46:55;;;;;;;2.27;2.03;;;;;;;-144.99;97.63;52358.41;4985578;28;20698;-74
2021/03/04 07:49:31;;;;;;;3.83;2.53;;;;;;;-144.99;97.65;52350.25;4993791;28;20646;-74
2021/03/04 07:52:09;;;;;;;4.80;2.63;;;;;;;-144.99;97.60;52317.66;4990111;28;21109;-76
2021/03/04 07:54:38;;;;;;;5.50;2.30;;;;;;;-144.99;97.83;52313.56;4993132;28;20646;-75
2021/03/04 07:57:06;;;;;;;5.27;2.27;;;;;;;-144.99;97.75;52329.88;4999637;28;20621;-77
2021/03/04 07:59:32;;;;;;;9.07;2.37;;;;;;;-144.99;97.84;52338.03;4994519;28;20630;-75
2021/03/04 08:02:00;;;;;;;4.70;3.00;;;;;;;-144.99;97.84;52378.78;4988274;28;20639;-77
2021/03/04 08:04:27;;;;;;;13.57;3.10;;;;;;;-144.99;98.02;52321.72;4995854;28;20661;-77
2021/03/04 08:06:55;;;;;;;4.47;3.23;;;;;;;-144.99;97.32;52333.94;4991303;28;20714;-75
2021/03/04 08:09:29;;;;;;;5.93;2.87;;;;;;;-144.99;97.38;52342.09;4997159;28;21219;-75
2021/03/04 08:12:08;;;;;;;6.77;2.23;;;;;;;-144.99;96.50;52362.50;5004718;28;20635;-76
2021/03/04 08:14:36;;;;;;;2.47;1.97;;;;;;;-144.99;96.21;52342.09;5005432;28;20635;-76
2021/03/04 08:17:03;;;;;;;3.13;2.40;;;;;;;-144.99;96.20;52317.66;5000699;28;20641;-77
2021/03/04 08:19:30;;;;;;;4.63;3.00;;;;;;;-144.99;95.98;52346.19;4994854;28;20922;-76
2021/03/04 08:22:02;;;;;;;11.87;4.37;;;;;;;-144.99;95.60;52368.59;4998335;28;20631;-74
2021/03/04 08:24:29;;;;;;;10.30;2.57;;;;;;;-144.99;95.54;52329.88;4993134;28;20948;-74
2021/03/04 08:26:57;;;;;;;7.70;3.87;;;;;;;-144.99;95.77;52374.72;4999726;28;21457;-75
2021/03/04 08:29:23;;;;;;;8.17;2.40;;;;;;;-144.99;96.02;52305.41;4995326;28;20614;-77
2021/03/04 08:31:50;;;;;;;5.20;2.80;;;;;;;-144.99;96.14;52378.78;4993372;28;20729;-75
2021/03/04 08:34:17;;;;;;;4.90;2.40;;;;;;;-144.99;96.21;52325.81;4987161;28;20658;-76
2021/03/04 08:36:45;;;;;;;4.73;2.60;;;;;;;-144.99;96.06;52331.91;4988707;28;20626;-74
2021/03/04 08:39:11;;;;;;;5.93;3.77;;;;;;;-144.99;96.37;52313.56;4985167;28;20850;-75
2021/03/04 08:41:38;;;;;;;11.80;3.27;;;;;;;-144.99;96.04;52350.25;4985636;28;20653;-74
2021/03/04 08:44:12;;;;;;;3.37;1.97;;;;;;;-144.99;96.24;52305.41;4986918;28;20650;-75
2021/03/04 08:46:40;;;;;;;5.60;2.43;;;;;;;-144.99;96.29;52327.84;4989763;28;20753;-77
2021/03/04 08:49:06;;;;;;;7.60;3.07;;;;;;;-144.99;96.05;52309.50;4991768;28;20641;-74
2021/03/04 08:51:34;;;;;;;10.43;7.17;;;;;;;-144.99;96.08;52346.19;4990559;28;20680;-75
2021/03/04 08:54:00;;;;;;;9.27;2.17;;;;;;;-144.99;96.05;52307.47;4989906;28;20643;-75
2021/03/04 08:56:27;;;;;;;6.43;2.80;;;;;;;-144.99;96.00;52331.91;4987245;28;20635;-75
2021/03/04 08:58:53;;;;;;;5.30;2.30;;;;;;;-144.99;95.97;52303.38;4983536;28;20646;-74
2021/03/04 09:01:19;;;;;;;4.20;2.47;;;;;;;-144.99;95.95;52313.56;4990848;28;20661;-76
2021/03/04 09:03:45;;;;;;;4.27;2.60;;;;;;;-144.99;95.82;52311.53;4984012;28;20757;-74
2021/03/04 09:06:13;;;;;;;9.37;5.30;;;;;;;-144.99;95.92;52319.69;4987665;28;20762;-76
2021/03/04 09:08:40;;;;;;;5.03;2.83;;;;;;;-144.99;95.79;52348.22;4985422;28;20737;-75
2021/03/04 09:11:08;;;;;;;7.77;4.07;;;;;;;-144.99;95.75;52338.03;4992643;28;20691;-74
2021/03/04 09:13:36;;;;;;;11.97;3.00;;;;;;;-144.99;95.67;52333.94;4983780;28;20694;-75
2021/03/04 09:16:05;;;;;;;6.50;2.80;;;;;;;-144.99;95.58;52327.84;4985765;28;20615;-75
2021/03/04 09:18:32;;;;;;;9.43;2.57;;;;;;;-144.99;95.62;52346.19;4991330;28;20972;-74
2021/03/04 09:20:59;;;;;;;5.60;2.57;;;;;;;-144.99;95.56;52297.25;4985340;28;20646;-75
2021/03/04 09:23:26;;;;;;;7.67;2.43;;;;;;;-144.99;95.65;52301.34;4991008;28;20733;-74
2021/03/04 09:25:56;;;;;;;8.23;2.70;;;;;;;-144.99;95.62;52317.66;4991894;28;20692;-75
2021/03/04 09:28:23;;;;;;;7.27;3.30;;;;;;;-144.99;95.31;52348.22;4991657;28;20692;-76
2021/03/04 09:30:50;;;;;;;8.37;4.47;;;;;;;-144.99;95.23;52342.09;4991347;28;20622;-74
2021/03/04 09:33:19;;;;;;;9.50;4.07;;;;;;;-144.99;94.87;52321.72;4987951;28;20713;-75
2021/03/04 09:36:02;;;;;;;13.03;3.17;;;;;;;-144.99;94.24;52280.97;4985577;28;20656;-75
2021/03/04 09:38:29;;;;;;;10.17;2.93;;;;;;;-144.99;93.68;52321.72;4987319;28;20652;-75
2021/03/04 09:41:07;;;;;;;10.00;2.43;;;;;;;-144.99;93.57;52344.16;4984288;28;20627;-77
2021/03/04 09:43:39;;;;;;;6.43;2.60;;;;;;;-144.99;92.45;52350.25;4991893;28;20664;-76
2021/03/04 09:46:06;;;;;;;9.30;2.53;;;;;;;-144.99;92.21;52327.84;4991185;28;20650;-76
2021/03/04 09:48:37;;;;;;;7.30;3.00;;;;;;;-144.99;92.28;52346.19;4991147;28;20669;-78
2021/03/04 09:51:04;;;;;;;5.37;1.60;;;;;;;-144.99;92.14;52346.19;4988313;28;20631;-76
2021/03/04 09:53:30;;;;;;;7.70;2.97;;;;;;;-144.99;91.93;52301.34;4990929;28;20693;-76
2021/03/04 09:56:03;;;;;;;9.53;3.03;;;;;;;-144.99;91.61;52338.03;4989558;28;20730;-77
2021/03/04 09:58:31;;;;;;;8.43;3.47;;;;;;;-144.99;91.12;52329.88;4985854;28;20643;-76
2021/03/04 10:00:59;;;;;;;13.37;5.30;;;;;;;-144.99;90.68;52338.03;4983783;28;20721;-77
2021/03/04 10:03:33;;;;;;;12.60;4.70;;;;;;;-144.99;89.49;52336.00;4987372;28;20723;-75
2021/03/04 10:05:59;;;;;;;12.97;2.80;;;;;;;-144.99;89.39;52293.19;4987430;28;20678;-77
2021/03/04 10:08:26;;;;;;;9.90;3.50;;;;;;;-144.99;88.46;52342.09;4985388;28;20970;-75
2021/03/04 10:10:52;;;;;;;10.93;2.17;;;;;;;-144.99;88.63;52289.13;4990691;28;20203;-75
2021/03/04 10:13:36;;;;;;;6.30;2.27;;;;;;;-144.99;88.47;52305.41;4988989;28;20232;-76
2021/03/04 10:16:09;;;;;;;12.43;2.60;;;;;;;-144.99;87.67;52289.13;4984201;28;20200;-75
2021/03/04 10:18:36;;;;;;;8.83;3.10;;;;;;;-144.99;86.53;52327.84;4990215;28;20717;-76
2021/03/04 10:21:03;;;;;;;12.07;2.47;;;;;;;-144.99;86.54;52370.63;4983425;28;20316;-75
2021/03/04 10:23:31;;;;;;;12.40;2.37;;;;;;;-144.99;86.62;52297.25;4990130;28;20243;-78
2021/03/04 10:25:57;;;;;;;6.50;2.43;;;;;;;-144.99;87.47;52299.31;4991329;28;20274;-76
2021/03/04 10:28:24;;;;;;;12.63;2.17;;;;;;;-144.99;86.94;52350.25;4991242;28;20681;-78
2021/03/04 10:30:50;;;;;;;8.53;2.40;;;;;;;-144.99;86.92;52297.25;4984015;28;20592;-74
2021/03/04 10:33:17;;;;;;;12.30;3.27;;;;;;;-144.99;86.90;52313.56;4988170;28;20257;-73
2021/03/04 10:35:44;;;;;;;12.87;3.27;;;;;;;-144.99;86.99;52295.22;4985006;28;20287;-75
2021/03/04 10:38:10;;;;;;;5.00;2.67;;;;;;;-144.99;86.51;52342.09;4988584;28;20216;-74
2021/03/04 10:40:36;;;;;;;11.10;4.40;;;;;;;-144.99;86.23;52309.50;4983722;28;20296;-75
2021/03/04 10:43:03;;;;;;;6.83;2.70;;;;;;;-144.99;86.13;52321.72;4990661;28;20226;-74
2021/03/04 10:45:29;;;;;;;8.90;3.33;;;;;;;-144.99;86.22;52329.88;4989646;28;20298;-74
2021/03/04 10:47:55;;;;;;;9.13;2.90;;;;;;;-144.99;85.61;52325.81;4988884;28;20535;-72
2021/03/04 10:50:23;;;;;;;15.40;2.97;;;;;;;-144.99;85.47;52382.88;4984997;28;20222;-75
2021/03/04 10:52:50;;;;;;;7.37;3.23;;;;;;;-144.99;85.35;52313.56;4988851;28;20227;-73
2021/03/04 10:55:17;;;;;;;17.53;3.70;;;;;;;-144.99;85.03;52354.34;4983242;28;20204;-75
2021/03/04 10:57:43;;;;;;;9.90;2.47;;;;;;;-144.99;84.86;52325.81;4989855;28;20200;-75
2021/03/04 11:00:11;;;;;;;9.47;2.40;;;;;;;-144.99;84.82;52342.09;4982424;28;20192;-75
2021/03/04 11:02:38;;;;;;;15.43;2.30;;;;;;;-144.99;84.68;52356.38;4990164;28;20721;-77
2021/03/04 11:05:06;;;;;;;18.50;3.53;;;;;;;-144.99;84.35;52331.91;4989028;28;20211;-75
2021/03/04 11:07:32;;;;;;;6.33;2.07;;;;;;;-144.99;83.78;52329.88;4984817;28;20230;-75
2021/03/04 11:09:59;;;;;;;8.00;2.77;;;;;;;-144.99;84.01;52338.03;4984002;28;20228;-74
2021/03/04 11:12:26;;;;;;;4.67;2.13;;;;;;;-144.99;83.73;52313.56;4990167;28;20402;-75